Time;durP1;ratioP1;P1;durP2;ratioP2;P2;SDS_P1;SDS_P2;PMS_P1;PMS_P2;Temp;Humidity;BMP_temperature;BMP_pressure;BME280_temperature;BME280_humidity;BME280_pressure;Samples;Min_cycle;Max_cycle;Signal;HPM_P1;HPM_P2
2022/08/05 06:20:55;;;;;;;;;;;;;;;28.74;49.05;96786.88;4249349;27;10315;-70
2022/08/05 06:22:58;;;;;;;;;;;;;;;28.97;48.75;96793.94;4248791;27;5754;-70
2022/08/05 06:25:07;;;;;;;;;;;;;;;29.21;48.26;96805.28;4241735;27;5812;-70
2022/08/05 06:27:30;;;;;;;;;;;;;;;29.41;47.93;96805.84;4232940;27;5809;-69
2022/08/05 06:29:53;;;;;;;;;;;;;;;29.56;47.69;96808.19;4242698;27;5649;-70
2022/08/05 06:32:07;;;;;;;;;;;;;;;29.66;47.53;96802.44;4247116;27;5654;-70
2022/08/05 06:34:23;;;;;;;;;;;;;;;29.77;47.21;96808.41;4247335;27;5658;-70
2022/08/05 06:36:30;;;;;;;;;;;;;;;29.82;47.03;96805.56;4236650;27;5826;-70
2022/08/05 06:38:53;;;;;;;;;;;;;;;29.92;47.11;96804.47;4246778;27;5756;-70
2022/08/05 06:40:57;;;;;;;;;;;;;;;29.99;47.04;96802.84;4246612;27;5783;-70
2022/08/05 06:43:01;;;;;;;;;;;;;;;30.06;46.83;96800.50;4246469;27;5737;-70
2022/08/05 06:45:05;;;;;;;;;;;;;;;30.11;46.78;96802.25;4234281;27;5651;-70
2022/08/05 06:47:10;;;;;;;;;;;;;;;30.16;46.58;96801.31;4231289;27;5569;-70
2022/08/05 06:49:33;;;;;;;;;;;;;;;30.20;46.16;96802.28;4230933;27;5683;-70
2022/08/05 06:51:57;;;;;;;;;;;;;;;30.27;46.59;96808.06;4231084;27;5775;-70
2022/08/05 06:54:02;;;;;;;;;;;;;;;30.32;46.39;96803.25;4238567;27;5654;-70
2022/08/05 06:56:06;;;;;;;;;;;;;;;30.34;46.26;96806.44;4244549;27;5638;-71
2022/08/05 06:58:28;;;;;;;;;;;;;;;30.33;46.37;96810.31;4235435;27;5658;-70
2022/08/05 07:00:38;;;;;;;;;;;;;;;30.33;46.22;96812.22;4229337;27;5832;-70
2022/08/05 07:02:43;;;;;;;;;;;;;;;30.35;46.00;96801.78;4234972;27;5665;-71
2022/08/05 07:04:46;;;;;;;;;;;;;;;30.39;46.14;96819.13;4246730;27;5698;-71
2022/08/05 07:06:49;;;;;;;;;;;;;;;30.41;45.94;96816.88;4246856;27;6187;-71
2022/08/05 07:08:53;;;;;;;;;;;;;;;30.42;45.83;96813.03;4246435;27;5646;-71
2022/08/05 07:10:57;;;;;;;;;;;;;;;30.41;45.66;96812.25;4246075;27;5100;-71
2022/08/05 07:18:06;;;;;;;;;;;;;;;30.52;45.46;96825.56;4227276;27;5752;-71
2022/08/05 07:20:12;;;;;;;;;;;;;;;30.52;45.40;96823.63;4231584;27;5785;-71
2022/08/05 07:22:34;;;;;;;;;;;;;;;30.49;45.60;96818.81;4218592;28;5675;-71
2022/08/05 07:24:39;;;;;;;;;;;;;;;30.52;45.47;96822.81;4219122;28;5848;-71
2022/08/05 07:26:54;;;;;;;;;;;;;;;30.50;45.55;96820.44;4218477;28;5687;-71
2022/08/05 07:28:57;;;;;;;;;;;;;;;30.51;45.68;96822.03;4215925;28;5867;-71
2022/08/05 07:31:01;;;;;;;;;;;;;;;30.48;45.54;96817.22;4216440;28;5671;-71
2022/08/05 07:33:06;;;;;;;;;;;;;;;30.49;45.63;96818.81;4219134;28;5675;-71
2022/08/05 07:35:13;;;;;;;;;;;;;;;30.52;45.52;96823.63;4217393;28;5671;-71
2022/08/05 07:37:36;;;;;;;;;;;;;;;30.52;45.53;96823.63;4202347;28;5704;-71
2022/08/05 07:39:42;;;;;;;;;;;;;;;30.54;45.50;96826.84;4204170;28;5864;-71
2022/08/05 07:42:05;;;;;;;;;;;;;;;30.49;45.35;96828.94;4218897;28;5675;-71
2022/08/05 07:44:17;;;;;;;;;;;;;;;30.49;45.30;96829.72;4219009;28;5672;-71
2022/08/05 07:46:21;;;;;;;;;;;;;;;30.55;45.20;96827.63;4217071;28;5927;-71
2022/08/05 07:48:27;;;;;;;;;;;;;;;30.56;45.17;96832.78;4222334;28;5645;-71
2022/08/05 07:50:50;;;;;;;;;;;;;;;30.62;45.33;96834.22;4218052;28;5762;-71
2022/08/05 07:52:53;;;;;;;;;;;;;;;30.63;45.23;96835.03;4217411;28;5698;-71
2022/08/05 07:54:57;;;;;;;;;;;;;;;30.62;45.32;96830.69;4223430;28;5837;-71
2022/08/05 07:57:02;;;;;;;;;;;;;;;30.64;45.33;96829.28;4217484;28;6408;-70
2022/08/05 07:59:25;;;;;;;;;;;;;;;30.65;45.65;96839.06;4232593;28;5646;-71
2022/08/05 08:01:42;;;;;;;;;;;;;;;30.61;45.65;96843.53;4219070;28;6518;-71
2022/08/05 08:03:59;;;;;;;;;;;;;;;30.59;45.46;96834.88;4217425;28;5749;-72
2022/08/05 08:06:03;;;;;;;;;;;;;;;30.62;45.71;96836.94;4231080;28;5669;-72
2022/08/05 08:08:06;;;;;;;;;;;;;;;30.62;45.71;96839.69;4234396;28;5824;-71
2022/08/05 08:10:15;;;;;;;;;;;;;;;30.61;45.82;96837.28;4232348;27;5784;-71
2022/08/05 08:12:23;;;;;;;;;;;;;;;30.61;45.76;96840.81;4216925;28;5666;-71
2022/08/05 08:14:39;;;;;;;;;;;;;;;30.62;45.77;96836.94;4215868;28;6479;-71
2022/08/05 08:16:42;;;;;;;;;;;;;;;30.61;45.63;96840.81;4217193;28;5896;-70
2022/08/05 08:18:55;;;;;;;;;;;;;;;30.62;45.73;96834.22;4213573;28;5696;-72
2022/08/05 08:20:59;;;;;;;;;;;;;;;30.64;45.59;96834.72;4217754;28;5774;-71
2022/08/05 08:23:11;;;;;;;;;;;;;;;30.65;45.60;96843.72;4218358;28;5829;-71
2022/08/05 08:25:36;;;;;;;;;;;;;;;30.65;45.73;96835.53;4216840;28;6477;-71
2022/08/05 08:28:00;;;;;;;;;;;;;;;30.64;45.67;96837.47;4216068;28;5770;-71
2022/08/05 08:30:04;;;;;;;;;;;;;;;30.68;45.73;96841.13;4213861;28;5649;-71
2022/08/05 08:32:27;;;;;;;;;;;;;;;30.69;45.43;96845.50;4210954;28;5831;-70
2022/08/05 08:34:31;;;;;;;;;;;;;;;30.70;45.36;96849.84;4215882;28;5877;-71
2022/08/05 08:36:35;;;;;;;;;;;;;;;30.72;45.20;96844.03;4226174;28;5648;-71
2022/08/05 08:38:56;;;;;;;;;;;;;;;30.76;45.72;96852.38;4220370;28;5675;-71
2022/08/05 08:41:05;;;;;;;;;;;;;;;30.76;45.34;96844.19;4214595;28;6603;-72
2022/08/05 08:43:11;;;;;;;;;;;;;;;30.75;45.40;96848.06;4209852;28;5107;-71
2022/08/05 08:45:37;;;;;;;;;;;;;;;30.74;45.11;96852.72;4213694;28;5673;-71
2022/08/05 08:47:43;;;;;;;;;;;;;;;30.76;45.09;96855.09;4215498;28;5734;-72
2022/08/05 08:50:07;;;;;;;;;;;;;;;30.75;45.19;96853.50;4215921;28;5690;-71
2022/08/05 08:52:33;;;;;;;;;;;;;;;30.77;45.07;96852.06;4217274;28;5688;-71
2022/08/05 08:54:36;;;;;;;;;;;;;;;30.82;45.12;96853.84;4219473;28;5653;-71
2022/08/05 08:56:45;;;;;;;;;;;;;;;30.85;45.00;96853.19;4224223;28;5685;-71
2022/08/05 08:58:51;;;;;;;;;;;;;;;30.85;44.73;96854.00;4218299;28;5746;-71
2022/08/05 09:00:54;;;;;;;;;;;;;;;30.86;44.83;96855.59;4214907;27;5700;-71
2022/08/05 09:02:58;;;;;;;;;;;;;;;30.86;44.78;96854.78;4221001;28;5669;-71
2022/08/05 09:05:01;;;;;;;;;;;;;;;30.85;44.78;96864.91;4233230;27;5698;-71
2022/08/05 09:07:20;;;;;;;;;;;;;;;30.82;44.67;96857.38;4217608;28;5710;-71
2022/08/05 09:09:31;;;;;;;;;;;;;;;30.78;44.70;96847.41;4218062;28;5664;-71
2022/08/05 09:11:37;;;;;;;;;;;;;;;30.75;44.55;96839.88;4216887;27;6357;-71
2022/08/05 09:13:56;;;;;;;;;;;;;;;30.77;44.71;96845.78;4220986;28;5642;-71
2022/08/05 09:16:19;;;;;;;;;;;;;;;30.80;44.56;96850.59;4213264;28;5871;-71
2022/08/05 09:18:29;;;;;;;;;;;;;;;30.85;44.82;96850.47;4218608;28;5732;-72
2022/08/05 09:20:32;;;;;;;;;;;;;;;30.88;44.87;96844.34;4215110;28;5734;-71
2022/08/05 09:23:05;;;;;;;;;;;;;;;30.92;44.50;96843.41;4213582;28;6729;-69
2022/08/05 09:25:18;;;;;;;;;;;;;;;31.00;44.43;96844.50;4222527;28;5782;-68
2022/08/05 09:27:41;;;;;;;;;;;;;;;31.14;44.13;96838.84;4216969;28;5885;-69
2022/08/05 09:30:07;;;;;;;;;;;;;;;31.25;44.10;96840.91;4213326;28;6316;-69
2022/08/05 09:32:19;;;;;;;;;;;;;;;31.29;44.14;96844.63;4213700;28;5649;-69
2022/08/05 09:34:50;;;;;;;;;;;;;;;31.33;43.86;96846.69;4213376;28;6639;-69
2022/08/05 09:36:53;;;;;;;;;;;;;;;31.29;43.81;96844.63;4220395;28;5675;-69
2022/08/05 09:39:06;;;;;;;;;;;;;;;31.25;43.84;96849.13;4216439;28;5092;-69
2022/08/05 09:41:20;;;;;;;;;;;;;;;31.21;43.67;96845.44;4213466;28;5755;-69
2022/08/05 09:43:29;;;;;;;;;;;;;;;31.18;43.73;96840.59;4216476;28;5679;-69
2022/08/05 09:45:45;;;;;;;;;;;;;;;31.18;43.57;96837.88;4212137;28;5736;-69
2022/08/05 09:48:24;;;;;;;;;;;;;;;31.13;43.47;96848.94;4212933;28;5758;-68
2022/08/05 09:50:37;;;;;;;;;;;;;;;31.07;43.49;96839.34;4217239;28;5687;-68
2022/08/05 09:52:47;;;;;;;;;;;;;;;31.06;43.00;96842.41;4218621;28;5653;-68
2022/08/05 09:54:57;;;;;;;;;;;;;;;31.04;43.36;96845.47;4215348;28;5847;-68
2022/08/05 09:57:00;;;;;;;;;;;;;;;31.06;43.15;96845.94;4210185;28;5759;-68
2022/08/05 09:59:06;;;;;;;;;;;;;;;31.07;43.07;96839.34;4216493;28;5675;-69
2022/08/05 10:01:12;;;;;;;;;;;;;;;31.05;42.99;96838.88;4216351;28;5861;-69
2022/08/05 10:03:25;;;;;;;;;;;;;;;31.06;42.68;96829.56;4216922;28;7702;-67
2022/08/05 10:06:00;;;;;;;;;;;;;;;31.07;42.50;96824.91;4220420;28;5654;-68
2022/08/05 10:08:09;;;;;;;;;;;;;;;31.08;42.67;96821.03;4216185;28;5874;-69
2022/08/05 10:10:36;;;;;;;;;;;;;;;31.06;42.72;96821.38;4210730;28;5676;-69
2022/08/05 10:12:41;;;;;;;;;;;;;;;31.05;42.35;96825.22;4222406;28;5810;-69
2022/08/05 10:14:52;;;;;;;;;;;;;;;31.01;42.14;96813.34;4232459;28;5658;-69
2022/08/05 10:17:11;;;;;;;;;;;;;;;31.00;42.11;96807.06;4228640;27;5662;-69
2022/08/05 10:19:34;;;;;;;;;;;;;;;31.07;42.32;96798.41;4220072;28;5838;-69
2022/08/05 10:21:57;;;;;;;;;;;;;;;31.14;41.77;96801.41;4219877;28;5767;-69
2022/08/05 10:24:01;;;;;;;;;;;;;;;31.18;41.85;96802.38;4226687;27;5676;-68
2022/08/05 10:26:12;;;;;;;;;;;;;;;31.23;42.16;96799.50;4222380;28;5923;-68
2022/08/05 10:28:17;;;;;;;;;;;;;;;31.24;41.93;96801.09;4227044;27;5933;-70
2022/08/05 10:30:31;;;;;;;;;;;;;;;31.23;41.78;96804.94;4218416;28;5661;-65
2022/08/05 10:32:58;;;;;;;;;;;;;;;31.24;41.61;96803.81;4217449;28;5749;-70
2022/08/05 10:35:05;;;;;;;;;;;;;;;31.25;41.75;96797.22;4217285;28;5950;-71
2022/08/05 10:37:09;;;;;;;;;;;;;;;31.27;41.42;96802.38;4215911;28;5089;-71
2022/08/05 10:39:18;;;;;;;;;;;;;;;31.28;41.50;96796.59;4224579;28;5671;-70
2022/08/05 10:41:49;;;;;;;;;;;;;;;31.32;41.49;96795.94;4216668;28;5667;-68
2022/08/05 10:43:57;;;;;;;;;;;;;;;31.32;41.48;96795.94;4215927;28;5683;-68
2022/08/05 10:46:03;;;;;;;;;;;;;;;31.32;41.51;96793.22;4214278;28;5827;-70
2022/08/05 10:48:32;;;;;;;;;;;;;;;31.28;41.41;96793.88;4224015;28;5733;-74
2022/08/05 10:50:59;;;;;;;;;;;;;;;31.26;41.54;96787.13;4219221;28;5731;-71
2022/08/05 10:53:05;;;;;;;;;;;;;;;31.26;41.44;96785.22;4225944;28;5923;-73
2022/08/05 10:55:10;;;;;;;;;;;;;;;31.24;41.62;96781.97;4216743;28;5987;-76
2022/08/05 10:57:33;;;;;;;;;;;;;;;31.23;41.32;96783.09;4220324;27;7804;-74
2022/08/05 10:59:40;;;;;;;;;;;;;;;31.21;41.36;96782.63;4214758;28;5696;-75
2022/08/05 11:02:08;;;;;;;;;;;;;;;31.24;41.23;96783.91;4217526;28;5775;-68
2022/08/05 11:04:23;;;;;;;;;;;;;;;31.25;41.21;96777.31;4224866;28;5686;-74
2022/08/05 11:06:28;;;;;;;;;;;;;;;31.26;41.13;96771.56;4233589;28;5649;-74
2022/08/05 11:08:33;;;;;;;;;;;;;;;31.26;41.18;96777.00;4226489;28;5699;-74
2022/08/05 11:10:42;;;;;;;;;;;;;;;31.24;41.22;96764.78;4214695;28;5790;-77
2022/08/05 11:13:02;;;;;;;;;;;;;;;31.24;41.19;96768.31;4224606;28;5655;-71
2022/08/05 11:15:10;;;;;;;;;;;;;;;31.21;40.92;96758.06;4214800;28;5687;-74
2022/08/05 11:17:29;;;;;;;;;;;;;;;31.22;41.07;96773.31;4213015;28;5746;-75
2022/08/05 11:19:58;;;;;;;;;;;;;;;31.24;40.78;96760.13;4231515;28;5850;-73
2022/08/05 11:22:40;;;;;;;;;;;;;;;31.28;40.83;96763.03;4217026;28;5750;-74
2022/08/05 11:24:44;;;;;;;;;;;;;;;31.32;40.53;96760.44;4215333;28;5735;-68
2022/08/05 11:27:31;;;;;;;;;;;;;;;31.35;40.37;96757.03;4228636;28;5762;-66
2022/08/05 11:30:00;;;;;;;;;;;;;;;31.37;40.18;96757.50;4214414;28;5671;-74
2022/08/05 11:32:26;;;;;;;;;;;;;;;31.40;40.40;96756.88;4232025;28;5725;-72
2022/08/05 11:34:37;;;;;;;;;;;;;;;31.43;40.26;96753.47;4231583;28;6595;-71
2022/08/05 11:36:46;;;;;;;;;;;;;;;31.48;40.21;96750.53;4217615;28;5746;-72
2022/08/05 11:38:55;;;;;;;;;;;;;;;31.47;39.91;96751.69;4220956;28;5742;-70
2022/08/05 11:41:01;;;;;;;;;;;;;;;31.49;39.93;96750.25;4235594;27;5733;-78
2022/08/05 11:43:24;;;;;;;;;;;;;;;31.53;39.55;96747.66;4227246;27;5767;-72
2022/08/05 11:45:48;;;;;;;;;;;;;;;31.55;39.73;96740.72;4202331;28;5705;-71
2022/08/05 11:48:11;;;;;;;;;;;;;;;31.58;39.59;96740.03;4210266;28;5754;-75
2022/08/05 11:50:16;;;;;;;;;;;;;;;31.61;39.54;96738.59;4226902;28;5670;-71
2022/08/05 11:52:25;;;;;;;;;;;;;;;31.63;39.18;96739.06;4223335;28;5845;-68
2022/08/05 11:54:33;;;;;;;;;;;;;;;31.64;39.43;96737.94;4235773;28;5681;-68
2022/08/05 11:56:49;;;;;;;;;;;;;;;31.67;39.56;96731.00;4223373;28;5764;-67
2022/08/05 11:58:54;;;;;;;;;;;;;;;31.70;39.58;96731.13;4214215;28;5824;-67
2022/08/05 12:01:03;;;;;;;;;;;;;;;31.73;39.40;96730.50;4234254;27;5662;-68
2022/08/05 12:03:17;;;;;;;;;;;;;;;31.75;39.29;96722.78;4228126;28;5783;-68
2022/08/05 12:05:39;;;;;;;;;;;;;;;31.76;38.92;96724.38;4217927;28;5757;-67
2022/08/05 12:07:47;;;;;;;;;;;;;;;31.76;38.81;96724.38;4218360;28;5873;-68
2022/08/05 12:10:17;;;;;;;;;;;;;;;31.80;38.51;96725.31;4220632;28;5801;-69
2022/08/05 12:12:21;;;;;;;;;;;;;;;31.84;38.44;96715.34;4215646;28;5861;-68
2022/08/05 12:14:36;;;;;;;;;;;;;;;31.86;38.55;96707.59;4222947;28;5813;-68
2022/08/05 12:16:41;;;;;;;;;;;;;;;31.90;38.20;96709.66;4218905;28;5766;-68
2022/08/05 12:18:48;;;;;;;;;;;;;;;31.94;37.83;96702.38;4222956;28;5642;-68
2022/08/05 12:20:55;;;;;;;;;;;;;;;31.98;37.76;96708.81;4217051;28;5701;-68
2022/08/05 12:23:09;;;;;;;;;;;;;;;32.01;37.75;96708.94;4201320;28;5676;-66
2022/08/05 12:25:12;;;;;;;;;;;;;;;32.02;37.63;96707.78;4214596;28;5802;-67
2022/08/05 12:27:20;;;;;;;;;;;;;;;32.02;37.79;96705.06;4232606;27;5706;-67
2022/08/05 12:29:28;;;;;;;;;;;;;;;32.05;37.16;96709.06;4207974;28;5799;-68
2022/08/05 12:31:44;;;;;;;;;;;;;;;32.06;37.19;96705.22;4216849;28;5788;-68
2022/08/05 12:33:57;;;;;;;;;;;;;;;32.05;36.86;96693.47;4204755;28;5751;-67
2022/08/05 12:36:02;;;;;;;;;;;;;;;32.07;37.01;96698.59;4214936;28;5882;-67
2022/08/05 12:38:10;;;;;;;;;;;;;;;32.09;37.03;96690.88;4211726;27;6572;-67
2022/08/05 12:40:17;;;;;;;;;;;;;;;32.12;36.46;96692.91;4222366;28;5721;-67
2022/08/05 12:42:30;;;;;;;;;;;;;;;32.16;36.38;96689.16;4221307;27;5691;-67
2022/08/05 12:44:33;;;;;;;;;;;;;;;32.19;36.46;96687.72;4210311;28;5679;-67
2022/08/05 12:46:40;;;;;;;;;;;;;;;32.20;35.95;96685.78;4217605;28;6184;-67
2022/08/05 12:48:47;;;;;;;;;;;;;;;32.23;36.27;96677.69;4201201;28;5712;-69
2022/08/05 12:51:10;;;;;;;;;;;;;;;32.25;35.87;96680.91;4219732;28;5654;-67
2022/08/05 12:53:41;;;;;;;;;;;;;;;32.26;36.17;96679.75;4205954;28;5686;-67
2022/08/05 12:55:49;;;;;;;;;;;;;;;32.29;35.71;96670.94;4200779;28;5892;-69
2022/08/05 12:57:52;;;;;;;;;;;;;;;32.30;35.86;96671.72;4201177;28;5808;-68
2022/08/05 13:00:20;;;;;;;;;;;;;;;32.34;35.44;96665.22;4207421;28;5913;-68
2022/08/05 13:02:43;;;;;;;;;;;;;;;32.37;35.54;96659.09;4229668;28;5646;-69
2022/08/05 13:04:54;;;;;;;;;;;;;;;32.42;35.41;96658.88;4216457;28;5861;-72
2022/08/05 13:06:59;;;;;;;;;;;;;;;32.43;35.60;96663.22;4216135;28;5793;-70
2022/08/05 13:09:10;;;;;;;;;;;;;;;32.44;35.18;96655.81;4231090;27;5873;-70
2022/08/05 13:11:17;;;;;;;;;;;;;;;32.45;35.14;96651.94;4225782;28;5722;-70
2022/08/05 13:13:40;;;;;;;;;;;;;;;32.49;35.18;96646.56;4200471;28;6739;-70
2022/08/05 13:16:11;;;;;;;;;;;;;;;32.50;35.24;96648.19;4216618;28;5877;-70
2022/08/05 13:18:18;;;;;;;;;;;;;;;32.50;34.73;96645.44;4211986;28;5655;-70
2022/08/05 13:20:22;;;;;;;;;;;;;;;32.51;34.58;96649.81;4227773;28;5674;-70
2022/08/05 13:22:33;;;;;;;;;;;;;;;32.51;34.91;96638.84;4219537;28;5800;-70
2022/08/05 13:24:39;;;;;;;;;;;;;;;32.52;34.40;96645.94;4225779;28;5649;-70
2022/08/05 13:27:00;;;;;;;;;;;;;;;32.55;34.48;96631.56;4224142;28;6452;-72
2022/08/05 13:29:03;;;;;;;;;;;;;;;32.58;34.50;96628.94;4217267;28;5627;-71
2022/08/05 13:31:07;;;;;;;;;;;;;;;32.59;34.67;96627.00;4215495;28;5654;-72
2022/08/05 13:33:16;;;;;;;;;;;;;;;32.62;34.21;96631.78;4213614;28;5822;-71
2022/08/05 13:35:39;;;;;;;;;;;;;;;32.64;34.42;96624.84;4213860;27;5799;-71
2022/08/05 13:37:53;;;;;;;;;;;;;;;32.67;33.87;96620.63;4209571;28;5675;-69
2022/08/05 13:39:59;;;;;;;;;;;;;;;32.68;33.86;96614.81;4217937;28;5781;-70
2022/08/05 13:42:23;;;;;;;;;;;;;;;32.74;34.37;96623.63;4220720;27;5823;-78
2022/08/05 13:44:26;;;;;;;;;;;;;;;32.75;34.11;96617.00;4206625;28;5731;-77
2022/08/05 13:46:30;;;;;;;;;;;;;;;32.79;33.92;96619.84;4212743;28;5692;-77
2022/08/05 13:48:53;;;;;;;;;;;;;;;32.81;33.73;96621.09;4205567;28;5782;-70
2022/08/05 13:51:06;;;;;;;;;;;;;;;32.86;34.10;96628.34;4211387;28;5779;-70
2022/08/05 13:53:11;;;;;;;;;;;;;;;32.86;34.26;96622.84;4207925;28;5689;-70
2022/08/05 13:55:19;;;;;;;;;;;;;;;32.84;34.29;96625.91;4219879;28;5716;-71
2022/08/05 13:57:44;;;;;;;;;;;;;;;32.86;34.42;96623.66;4220648;28;5642;-71
2022/08/05 13:59:53;;;;;;;;;;;;;;;32.86;34.18;96629.13;4200477;28;5692;-71
2022/08/05 14:02:02;;;;;;;;;;;;;;;32.89;34.14;96625.69;4211813;28;5897;-71
2022/08/05 14:06:28;;;;;;;;;;;;;;;32.92;34.35;96622.28;4214414;28;5741;-71
2022/08/05 14:08:31;;;;;;;;;;;;;;;32.92;34.23;96616.00;4212606;28;5664;-71
2022/08/05 14:10:38;;;;;;;;;;;;;;;32.91;33.79;96623.41;4216895;28;5675;-71
2022/08/05 14:12:42;;;;;;;;;;;;;;;32.93;34.03;96621.13;4228300;28;5645;-71
2022/08/05 14:14:50;;;;;;;;;;;;;;;32.95;33.74;96615.31;4205875;28;5795;-71
2022/08/05 14:16:53;;;;;;;;;;;;;;;32.98;33.82;96626.41;4213554;28;5678;-71
2022/08/05 14:18:59;;;;;;;;;;;;;;;33.01;33.65;96619.44;4216550;28;5786;-70
2022/08/05 14:21:06;;;;;;;;;;;;;;;33.03;33.59;96613.59;4224029;28;5924;-71
2022/08/05 14:23:29;;;;;;;;;;;;;;;33.06;33.49;96604.69;4200394;28;5823;-71
2022/08/05 14:25:40;;;;;;;;;;;;;;;33.09;33.67;96615.78;4209759;28;5779;-70
2022/08/05 14:27:49;;;;;;;;;;;;;;;33.08;33.35;96614.19;4212361;28;6153;-70
2022/08/05 14:29:52;;;;;;;;;;;;;;;33.08;33.64;96614.19;4216524;28;5663;-70
2022/08/05 14:31:56;;;;;;;;;;;;;;;33.08;33.56;96607.91;4220562;28;5872;-70
2022/08/05 14:34:17;;;;;;;;;;;;;;;33.08;33.27;96610.66;4230275;28;5683;-70
2022/08/05 14:36:25;;;;;;;;;;;;;;;33.07;33.06;96619.97;4219568;28;5655;-70
2022/08/05 14:38:28;;;;;;;;;;;;;;;33.06;33.34;96621.13;4207308;28;5727;-70
2022/08/05 14:40:37;;;;;;;;;;;;;;;33.05;33.27;96619.53;4218207;28;5675;-70
2022/08/05 14:42:42;;;;;;;;;;;;;;;33.05;33.32;96616.78;4224580;28;5655;-71
2022/08/05 14:44:45;;;;;;;;;;;;;;;33.02;33.06;96618.28;4220490;28;5679;-70
2022/08/05 14:46:48;;;;;;;;;;;;;;;33.00;33.45;96615.91;4214885;28;7787;-70
2022/08/05 14:48:51;;;;;;;;;;;;;;;32.98;33.23;96620.91;4219928;28;5663;-71
2022/08/05 14:50:54;;;;;;;;;;;;;;;32.96;33.04;96617.72;4219485;28;5698;-71
2022/08/05 14:52:58;;;;;;;;;;;;;;;32.93;33.22;96612.91;4218030;28;5782;-71
2022/08/05 14:55:02;;;;;;;;;;;;;;;32.90;33.30;96616.34;4216147;28;5078;-70
2022/08/05 14:57:05;;;;;;;;;;;;;;;32.90;33.83;96618.28;4217223;28;5667;-71
2022/08/05 14:59:17;;;;;;;;;;;;;;;32.86;33.79;96609.97;4218672;28;5679;-71
2022/08/05 15:01:23;;;;;;;;;;;;;;;32.85;33.77;96610.31;4222669;28;6343;-71
2022/08/05 15:03:46;;;;;;;;;;;;;;;32.86;34.03;96601.75;4210873;28;5771;-70
2022/08/05 15:05:51;;;;;;;;;;;;;;;32.89;33.66;96605.75;4212302;28;5712;-71
2022/08/05 15:08:14;;;;;;;;;;;;;;;32.90;33.53;96596.38;4216247;28;5672;-70
2022/08/05 15:10:37;;;;;;;;;;;;;;;32.93;33.67;96603.91;4219839;27;5670;-70
2022/08/05 15:12:41;;;;;;;;;;;;;;;32.94;33.65;96592.59;4215145;28;5664;-70
2022/08/05 15:15:04;;;;;;;;;;;;;;;32.99;33.34;96591.59;4227066;28;5642;-69
2022/08/05 15:17:17;;;;;;;;;;;;;;;33.03;33.35;96602.66;4218330;28;5731;-70
2022/08/05 15:19:40;;;;;;;;;;;;;;;33.07;33.47;96604.34;4219110;28;5810;-68
2022/08/05 15:21:51;;;;;;;;;;;;;;;33.09;32.99;96604.81;4216890;28;5785;-77
2022/08/05 15:23:54;;;;;;;;;;;;;;;33.10;33.19;96606.44;4221296;28;5668;-74
2022/08/05 15:25:57;;;;;;;;;;;;;;;33.14;32.86;96618.28;4218336;28;5762;-71
2022/08/05 15:28:05;;;;;;;;;;;;;;;33.18;33.06;96602.75;4221002;28;5886;-71
2022/08/05 15:30:10;;;;;;;;;;;;;;;33.21;32.68;96614.97;4223195;28;5650;-70
2022/08/05 15:32:19;;;;;;;;;;;;;;;33.21;32.73;96614.97;4218124;28;6511;-70
2022/08/05 15:34:29;;;;;;;;;;;;;;;33.23;32.65;96609.94;4216365;28;6511;-70
2022/08/05 15:36:35;;;;;;;;;;;;;;;33.21;32.89;96618.50;4217640;28;5671;-69
2022/08/05 15:38:38;;;;;;;;;;;;;;;33.24;32.40;96617.03;4220768;28;5677;-69
2022/08/05 15:40:44;;;;;;;;;;;;;;;33.25;32.42;96611.19;4221392;28;5741;-70
2022/08/05 15:43:07;;;;;;;;;;;;;;;33.26;32.48;96609.25;4218383;28;5745;-71
2022/08/05 15:45:25;;;;;;;;;;;;;;;33.28;32.58;96601.47;4233932;27;5810;-71
2022/08/05 15:47:42;;;;;;;;;;;;;;;33.29;32.42;96605.81;4224650;28;5663;-71
2022/08/05 15:49:46;;;;;;;;;;;;;;;33.31;32.45;96606.28;4214829;28;5655;-70
2022/08/05 15:52:00;;;;;;;;;;;;;;;33.33;32.29;96604.00;4218086;28;5767;-70
2022/08/05 15:54:16;;;;;;;;;;;;;;;33.31;32.44;96609.03;4218319;28;5687;-70
2022/08/05 15:56:19;;;;;;;;;;;;;;;33.32;32.14;96607.09;4217807;28;5844;-70
2022/08/05 15:58:22;;;;;;;;;;;;;;;33.33;32.00;96597.72;4218467;28;5664;-70
2022/08/05 16:00:26;;;;;;;;;;;;;;;33.33;32.31;96611.44;4218018;28;5687;-70
2022/08/05 16:02:49;;;;;;;;;;;;;;;33.29;32.14;96603.06;4221537;28;5791;-70
2022/08/05 16:04:52;;;;;;;;;;;;;;;33.25;32.43;96605.72;4231242;28;5713;-69
2022/08/05 16:06:55;;;;;;;;;;;;;;;33.21;32.23;96601.28;4217996;28;6322;-69
2022/08/05 16:08:59;;;;;;;;;;;;;;;33.19;32.38;96617.25;4218077;28;5947;-70
2022/08/05 16:11:03;;;;;;;;;;;;;;;33.17;32.36;96608.56;4217574;28;5715;-70
2022/08/05 16:13:06;;;;;;;;;;;;;;;33.14;32.38;96622.97;4216114;28;5679;-70
2022/08/05 16:15:10;;;;;;;;;;;;;;;33.10;32.07;96622.84;4223897;28;5759;-70
2022/08/05 16:17:21;;;;;;;;;;;;;;;33.08;32.40;96625.16;4217647;28;5990;-69
2022/08/05 16:19:28;;;;;;;;;;;;;;;33.08;32.71;96629.81;4213710;28;5666;-69
2022/08/05 16:21:51;;;;;;;;;;;;;;;33.04;32.22;96635.16;4221497;28;5733;-70
2022/08/05 16:24:03;;;;;;;;;;;;;;;33.06;32.23;96643.03;4223195;27;5686;-68
2022/08/05 16:26:11;;;;;;;;;;;;;;;33.06;32.29;96654.00;4217433;28;5845;-68
2022/08/05 16:28:14;;;;;;;;;;;;;;;33.06;32.66;96670.41;4217952;28;5699;-69
2022/08/05 16:30:18;;;;;;;;;;;;;;;33.06;32.36;96681.38;4217663;28;5671;-68
2022/08/05 16:32:29;;;;;;;;;;;;;;;32.99;32.89;96673.75;4233276;28;5646;-68
2022/08/05 16:34:33;;;;;;;;;;;;;;;32.93;32.94;96677.81;4217671;28;6447;-68
2022/08/05 16:36:36;;;;;;;;;;;;;;;32.86;32.81;96683.09;4217499;28;5655;-69
2022/08/05 16:38:44;;;;;;;;;;;;;;;32.79;33.36;96671.84;4216245;28;5715;-68
2022/08/05 16:40:59;;;;;;;;;;;;;;;32.67;33.13;96676.16;4214246;28;5675;-68
2022/08/05 16:43:03;;;;;;;;;;;;;;;32.59;33.91;96677.06;4217269;28;5790;-68
2022/08/05 16:45:09;;;;;;;;;;;;;;;32.48;33.63;96666.88;4217449;28;5660;-68
2022/08/05 16:47:33;;;;;;;;;;;;;;;32.37;33.75;96672.75;4217508;28;5727;-68
2022/08/05 16:49:50;;;;;;;;;;;;;;;32.27;34.14;96675.88;4215921;28;5678;-68
2022/08/05 16:51:55;;;;;;;;;;;;;;;32.21;34.54;96690.91;4217075;28;5679;-69
2022/08/05 16:53:59;;;;;;;;;;;;;;;32.16;34.41;96696.56;4214761;28;7294;-69
2022/08/05 16:56:08;;;;;;;;;;;;;;;32.09;34.91;96707.28;4216967;28;5801;-68
2022/08/05 16:58:13;;;;;;;;;;;;;;;32.03;34.98;96703.91;4216977;28;5131;-68
2022/08/05 17:00:21;;;;;;;;;;;;;;;31.92;34.81;96723.78;4216818;28;5762;-68
2022/08/05 17:02:37;;;;;;;;;;;;;;;31.84;35.28;96739.94;4217134;28;6348;-69
2022/08/05 17:04:42;;;;;;;;;;;;;;;31.71;35.40;96751.84;4215993;28;5786;-68
2022/08/05 17:06:45;;;;;;;;;;;;;;;31.60;35.61;96769.78;4216771;28;5719;-68
2022/08/05 17:08:55;;;;;;;;;;;;;;;31.48;35.69;96781.38;4216878;28;5671;-68
2022/08/05 17:11:00;;;;;;;;;;;;;;;31.38;35.84;96787.25;4214387;28;6408;-68
2022/08/05 17:13:03;;;;;;;;;;;;;;;31.28;35.64;96791.13;4222214;28;6406;-69
2022/08/05 17:15:07;;;;;;;;;;;;;;;31.19;36.14;96790.34;4232839;28;5646;-68
2022/08/05 17:17:11;;;;;;;;;;;;;;;31.20;36.26;96778.31;4232410;27;5713;-68
2022/08/05 17:19:18;;;;;;;;;;;;;;;31.22;36.12;96786.97;4232102;28;5654;-67
2022/08/05 17:21:21;;;;;;;;;;;;;;;31.23;35.97;96793.22;4229160;27;5770;-69
2022/08/05 17:23:25;;;;;;;;;;;;;;;31.16;35.74;96806.56;4216643;28;6364;-68
2022/08/05 17:25:49;;;;;;;;;;;;;;;31.16;35.63;96815.56;4216397;28;5772;-69
2022/08/05 17:27:53;;;;;;;;;;;;;;;31.10;35.97;96833.22;4216937;28;5846;-69
2022/08/05 17:29:57;;;;;;;;;;;;;;;31.06;35.72;96826.03;4217611;28;5679;-69
2022/08/05 17:32:05;;;;;;;;;;;;;;;30.96;35.93;96849.81;4216401;28;5687;-68
2022/08/05 17:34:10;;;;;;;;;;;;;;;30.90;35.71;96836.63;4216746;28;5694;-69
2022/08/05 17:36:21;;;;;;;;;;;;;;;30.91;35.81;96862.81;4216558;28;5778;-69
2022/08/05 17:38:38;;;;;;;;;;;;;;;30.75;36.13;96857.03;4214978;28;5768;-69
2022/08/05 17:40:42;;;;;;;;;;;;;;;30.64;36.21;96869.41;4230609;28;5764;-69
2022/08/05 17:42:45;;;;;;;;;;;;;;;30.61;36.47;96876.28;4228652;27;5687;-69
2022/08/05 17:44:54;;;;;;;;;;;;;;;30.56;36.41;96889.25;4216709;28;5692;-69
2022/08/05 17:46:57;;;;;;;;;;;;;;;30.46;36.42;96895.81;4213970;27;5785;-69
2022/08/05 17:49:01;;;;;;;;;;;;;;;30.44;36.21;96890.69;4215223;28;5774;-69
2022/08/05 17:51:05;;;;;;;;;;;;;;;30.41;36.42;96906.91;4215293;28;5671;-69
2022/08/05 17:53:12;;;;;;;;;;;;;;;30.39;36.41;96911.88;4216372;28;5840;-68
2022/08/05 17:55:16;;;;;;;;;;;;;;;30.36;36.18;96915.25;4212889;28;5769;-69
2022/08/05 17:57:20;;;;;;;;;;;;;;;30.39;36.24;96920.84;4207019;28;6463;-69
2022/08/05 17:59:23;;;;;;;;;;;;;;;30.40;36.28;96919.72;4216131;28;5751;-69